sensor_id;sensor_type;location;lat;lon;timestamp;P1;durP1;ratioP1;P2;durP2;ratioP2
73219;SDS011;61434;43.538;-5.688;2023-03-14T00:14:40;946.05;;;283.50;;
73219;SDS011;61434;43.538;-5.688;2023-03-14T00:51:04;454.10;;;116.95;;
73219;SDS011;61434;43.538;-5.688;2023-03-14T00:53:31;621.15;;;96.50;;
73219;SDS011;61434;43.538;-5.688;2023-03-14T00:56:01;641.45;;;87.88;;
73219;SDS011;61434;43.538;-5.688;2023-03-14T00:58:28;621.45;;;88.30;;
73219;SDS011;61434;43.538;-5.688;2023-03-14T01:00:53;617.20;;;97.70;;
73219;SDS011;61434;43.538;-5.688;2023-03-14T01:03:19;582.30;;;106.40;;
73219;SDS011;61434;43.538;-5.688;2023-03-14T01:05:44;368.80;;;87.30;;
73219;SDS011;61434;43.538;-5.688;2023-03-14T01:08:09;441.80;;;164.13;;
73219;SDS011;61434;43.538;-5.688;2023-03-14T01:10:40;455.20;;;207.45;;
73219;SDS011;61434;43.538;-5.688;2023-03-14T01:13:06;357.95;;;82.20;;
73219;SDS011;61434;43.538;-5.688;2023-03-14T01:15:33;471.80;;;123.20;;
73219;SDS011;61434;43.538;-5.688;2023-03-14T01:20:24;524.80;;;122.60;;
73219;SDS011;61434;43.538;-5.688;2023-03-14T02:27:40;547.70;;;139.90;;
73219;SDS011;61434;43.538;-5.688;2023-03-14T02:30:11;539.93;;;138.43;;
73219;SDS011;61434;43.538;-5.688;2023-03-14T02:32:40;563.10;;;117.47;;
73219;SDS011;61434;43.538;-5.688;2023-03-14T02:35:09;448.20;;;102.90;;
73219;SDS011;61434;43.538;-5.688;2023-03-14T02:37:48;247.10;;;60.55;;
73219;SDS011;61434;43.538;-5.688;2023-03-14T03:21:35;1088.40;;;312.30;;
73219;SDS011;61434;43.538;-5.688;2023-03-14T03:24:00;392.30;;;125.30;;
73219;SDS011;61434;43.538;-5.688;2023-03-14T03:31:17;526.75;;;140.73;;
73219;SDS011;61434;43.538;-5.688;2023-03-14T03:33:42;1761.87;;;591.83;;
73219;SDS011;61434;43.538;-5.688;2023-03-14T03:36:08;1859.25;;;634.10;;
73219;SDS011;61434;43.538;-5.688;2023-03-14T03:38:34;395.40;;;128.60;;
73219;SDS011;61434;43.538;-5.688;2023-03-14T03:45:57;241.70;;;44.40;;
73219;SDS011;61434;43.538;-5.688;2023-03-14T03:48:23;588.73;;;98.47;;
73219;SDS011;61434;43.538;-5.688;2023-03-14T03:50:48;1846.07;;;611.90;;
73219;SDS011;61434;43.538;-5.688;2023-03-14T03:53:14;1877.65;;;588.00;;
73219;SDS011;61434;43.538;-5.688;2023-03-14T03:55:42;1655.65;;;437.20;;
73219;SDS011;61434;43.538;-5.688;2023-03-14T04:17:31;440.45;;;156.75;;
73219;SDS011;61434;43.538;-5.688;2023-03-14T04:19:56;483.70;;;152.70;;
73219;SDS011;61434;43.538;-5.688;2023-03-14T04:22:22;617.20;;;122.40;;
73219;SDS011;61434;43.538;-5.688;2023-03-14T04:24:47;1830.20;;;582.45;;
73219;SDS011;61434;43.538;-5.688;2023-03-14T04:27:13;570.90;;;94.70;;
73219;SDS011;61434;43.538;-5.688;2023-03-14T04:29:39;541.83;;;109.67;;
73219;SDS011;61434;43.538;-5.688;2023-03-14T04:32:05;511.80;;;120.93;;
73219;SDS011;61434;43.538;-5.688;2023-03-14T04:49:03;285.90;;;40.20;;
73219;SDS011;61434;43.538;-5.688;2023-03-14T05:06:03;204.70;;;54.20;;
73219;SDS011;61434;43.538;-5.688;2023-03-14T06:02:31;288.80;;;77.20;;
73219;SDS011;61434;43.538;-5.688;2023-03-14T06:22:54;1542.63;;;396.45;;
73219;SDS011;61434;43.538;-5.688;2023-03-14T06:25:20;1770.33;;;524.30;;
73219;SDS011;61434;43.538;-5.688;2023-03-14T06:27:46;1455.22;;;435.55;;
73219;SDS011;61434;43.538;-5.688;2023-03-14T06:30:12;1551.93;;;468.43;;
73219;SDS011;61434;43.538;-5.688;2023-03-14T06:32:38;1587.10;;;459.33;;
73219;SDS011;61434;43.538;-5.688;2023-03-14T06:35:03;1871.70;;;655.70;;
73219;SDS011;61434;43.538;-5.688;2023-03-14T06:37:29;1446.10;;;461.88;;
73219;SDS011;61434;43.538;-5.688;2023-03-14T06:39:55;531.45;;;110.45;;
73219;SDS011;61434;43.538;-5.688;2023-03-14T06:42:21;546.50;;;114.60;;
73219;SDS011;61434;43.538;-5.688;2023-03-14T06:44:47;699.25;;;165.13;;
73219;SDS011;61434;43.538;-5.688;2023-03-14T06:47:13;682.80;;;197.10;;
73219;SDS011;61434;43.538;-5.688;2023-03-14T06:49:59;1645.30;;;470.87;;
73219;SDS011;61434;43.538;-5.688;2023-03-14T06:52:46;1614.43;;;513.42;;
73219;SDS011;61434;43.538;-5.688;2023-03-14T06:55:13;1311.07;;;388.87;;
73219;SDS011;61434;43.538;-5.688;2023-03-14T06:57:39;1001.38;;;303.38;;
73219;SDS011;61434;43.538;-5.688;2023-03-14T07:00:04;1202.03;;;349.57;;
73219;SDS011;61434;43.538;-5.688;2023-03-14T07:02:31;1111.13;;;311.83;;
73219;SDS011;61434;43.538;-5.688;2023-03-14T07:05:06;1743.15;;;567.20;;
73219;SDS011;61434;43.538;-5.688;2023-03-14T07:07:52;1767.67;;;544.33;;
73219;SDS011;61434;43.538;-5.688;2023-03-14T07:10:18;1319.68;;;387.73;;
73219;SDS011;61434;43.538;-5.688;2023-03-14T07:16:00;1139.43;;;348.40;;
73219;SDS011;61434;43.538;-5.688;2023-03-14T07:18:46;751.00;;;219.95;;
73219;SDS011;61434;43.538;-5.688;2023-03-14T07:21:11;771.10;;;229.30;;
73219;SDS011;61434;43.538;-5.688;2023-03-14T07:23:37;693.40;;;198.30;;
73219;SDS011;61434;43.538;-5.688;2023-03-14T07:26:03;642.97;;;182.20;;
73219;SDS011;61434;43.538;-5.688;2023-03-14T07:28:50;688.95;;;197.60;;
73219;SDS011;61434;43.538;-5.688;2023-03-14T07:31:15;624.53;;;179.88;;
73219;SDS011;61434;43.538;-5.688;2023-03-14T07:33:40;617.07;;;175.93;;
73219;SDS011;61434;43.538;-5.688;2023-03-14T07:36:06;566.90;;;159.40;;
73219;SDS011;61434;43.538;-5.688;2023-03-14T07:38:32;586.53;;;165.10;;
73219;SDS011;61434;43.538;-5.688;2023-03-14T07:41:03;588.30;;;164.68;;
73219;SDS011;61434;43.538;-5.688;2023-03-14T07:43:41;531.30;;;150.97;;
73219;SDS011;61434;43.538;-5.688;2023-03-14T07:46:06;530.55;;;150.93;;
73219;SDS011;61434;43.538;-5.688;2023-03-14T07:48:32;614.27;;;174.50;;
73219;SDS011;61434;43.538;-5.688;2023-03-14T07:50:58;469.77;;;132.68;;
73219;SDS011;61434;43.538;-5.688;2023-03-14T07:53:24;532.27;;;149.57;;
73219;SDS011;61434;43.538;-5.688;2023-03-14T07:55:51;414.45;;;116.90;;
73219;SDS011;61434;43.538;-5.688;2023-03-14T07:58:17;442.27;;;125.85;;
73219;SDS011;61434;43.538;-5.688;2023-03-14T08:00:43;378.40;;;110.90;;
73219;SDS011;61434;43.538;-5.688;2023-03-14T08:03:09;766.70;;;225.50;;
73219;SDS011;61434;43.538;-5.688;2023-03-14T08:05:35;894.67;;;259.43;;
73219;SDS011;61434;43.538;-5.688;2023-03-14T08:08:02;879.30;;;252.27;;
73219;SDS011;61434;43.538;-5.688;2023-03-14T08:10:29;778.15;;;215.27;;
73219;SDS011;61434;43.538;-5.688;2023-03-14T08:12:55;1029.53;;;291.23;;
73219;SDS011;61434;43.538;-5.688;2023-03-14T08:15:22;865.63;;;246.47;;
73219;SDS011;61434;43.538;-5.688;2023-03-14T08:17:48;811.03;;;229.48;;
73219;SDS011;61434;43.538;-5.688;2023-03-14T08:20:20;806.60;;;230.77;;
73219;SDS011;61434;43.538;-5.688;2023-03-14T08:22:46;799.00;;;227.88;;
73219;SDS011;61434;43.538;-5.688;2023-03-14T08:25:12;802.58;;;229.18;;
73219;SDS011;61434;43.538;-5.688;2023-03-14T08:27:38;773.23;;;219.73;;
73219;SDS011;61434;43.538;-5.688;2023-03-14T08:30:06;787.55;;;222.80;;
73219;SDS011;61434;43.538;-5.688;2023-03-14T08:32:33;699.92;;;201.65;;
73219;SDS011;61434;43.538;-5.688;2023-03-14T08:34:59;748.83;;;215.70;;
73219;SDS011;61434;43.538;-5.688;2023-03-14T08:37:24;650.97;;;184.07;;
73219;SDS011;61434;43.538;-5.688;2023-03-14T08:39:50;709.80;;;202.75;;
73219;SDS011;61434;43.538;-5.688;2023-03-14T08:42:16;724.60;;;208.97;;
73219;SDS011;61434;43.538;-5.688;2023-03-14T08:44:42;739.00;;;215.10;;
73219;SDS011;61434;43.538;-5.688;2023-03-14T08:47:08;774.55;;;225.52;;
73219;SDS011;61434;43.538;-5.688;2023-03-14T08:49:34;806.93;;;236.00;;
73219;SDS011;61434;43.538;-5.688;2023-03-14T08:52:01;764.53;;;223.73;;
73219;SDS011;61434;43.538;-5.688;2023-03-14T08:54:27;713.10;;;207.13;;
73219;SDS011;61434;43.538;-5.688;2023-03-14T08:56:52;704.57;;;205.07;;
73219;SDS011;61434;43.538;-5.688;2023-03-14T08:59:17;717.60;;;208.77;;
73219;SDS011;61434;43.538;-5.688;2023-03-14T09:01:43;719.03;;;207.23;;
73219;SDS011;61434;43.538;-5.688;2023-03-14T09:04:08;736.00;;;213.87;;
73219;SDS011;61434;43.538;-5.688;2023-03-14T09:06:34;751.70;;;214.38;;
73219;SDS011;61434;43.538;-5.688;2023-03-14T09:09:01;739.27;;;209.37;;
73219;SDS011;61434;43.538;-5.688;2023-03-14T09:11:26;768.95;;;213.43;;
73219;SDS011;61434;43.538;-5.688;2023-03-14T09:13:52;714.30;;;195.07;;
73219;SDS011;61434;43.538;-5.688;2023-03-14T09:16:17;833.83;;;226.37;;
73219;SDS011;61434;43.538;-5.688;2023-03-14T09:18:43;736.70;;;200.23;;
73219;SDS011;61434;43.538;-5.688;2023-03-14T09:21:08;824.77;;;221.60;;
73219;SDS011;61434;43.538;-5.688;2023-03-14T09:23:33;843.93;;;221.57;;
73219;SDS011;61434;43.538;-5.688;2023-03-14T09:25:59;721.33;;;188.80;;
73219;SDS011;61434;43.538;-5.688;2023-03-14T09:28:25;764.78;;;199.52;;
73219;SDS011;61434;43.538;-5.688;2023-03-14T09:30:51;1335.78;;;321.35;;
73219;SDS011;61434;43.538;-5.688;2023-03-14T09:33:17;1276.30;;;311.67;;
73219;SDS011;61434;43.538;-5.688;2023-03-14T09:35:43;1157.28;;;284.63;;
73219;SDS011;61434;43.538;-5.688;2023-03-14T09:38:08;1526.40;;;350.30;;
73219;SDS011;61434;43.538;-5.688;2023-03-14T09:40:34;1412.10;;;332.33;;
73219;SDS011;61434;43.538;-5.688;2023-03-14T09:43:01;1674.78;;;378.60;;
73219;SDS011;61434;43.538;-5.688;2023-03-14T09:48:05;1999.90;;;467.90;;
73219;SDS011;61434;43.538;-5.688;2023-03-14T09:50:41;1999.90;;;482.63;;
73219;SDS011;61434;43.538;-5.688;2023-03-14T09:53:12;1999.90;;;467.23;;
73219;SDS011;61434;43.538;-5.688;2023-03-14T09:55:42;1936.25;;;437.42;;
73219;SDS011;61434;43.538;-5.688;2023-03-14T09:58:11;1999.90;;;526.60;;
73219;SDS011;61434;43.538;-5.688;2023-03-14T10:00:39;1999.90;;;605.50;;
73219;SDS011;61434;43.538;-5.688;2023-03-14T10:05:39;1999.90;;;668.75;;
73219;SDS011;61434;43.538;-5.688;2023-03-14T10:08:05;1999.90;;;858.38;;
73219;SDS011;61434;43.538;-5.688;2023-03-14T10:10:31;1999.90;;;999.90;;
73219;SDS011;61434;43.538;-5.688;2023-03-14T10:12:58;1999.90;;;942.60;;
73219;SDS011;61434;43.538;-5.688;2023-03-14T10:15:36;1999.90;;;999.90;;
73219;SDS011;61434;43.538;-5.688;2023-03-14T10:18:03;1999.90;;;999.90;;
73219;SDS011;61434;43.538;-5.688;2023-03-14T10:25:46;327.30;;;63.10;;
73219;SDS011;61434;43.538;-5.688;2023-03-14T10:45:56;882.80;;;218.50;;
73219;SDS011;61434;43.538;-5.688;2023-03-14T12:57:46;1999.90;;;557.78;;
73219;SDS011;61434;43.538;-5.688;2023-03-14T13:00:21;1999.90;;;680.15;;
73219;SDS011;61434;43.538;-5.688;2023-03-14T13:02:49;1695.37;;;528.37;;
73219;SDS011;61434;43.538;-5.688;2023-03-14T13:05:18;1103.70;;;293.85;;
73219;SDS011;61434;43.538;-5.688;2023-03-14T13:10:29;1174.82;;;309.70;;
73219;SDS011;61434;43.538;-5.688;2023-03-14T13:12:57;1353.65;;;352.13;;
73219;SDS011;61434;43.538;-5.688;2023-03-14T13:15:39;1370.27;;;354.20;;
73219;SDS011;61434;43.538;-5.688;2023-03-14T13:20:38;1362.97;;;355.48;;
73219;SDS011;61434;43.538;-5.688;2023-03-14T13:23:31;1358.93;;;353.17;;
73219;SDS011;61434;43.538;-5.688;2023-03-14T13:25:59;1347.55;;;351.77;;
73219;SDS011;61434;43.538;-5.688;2023-03-14T13:28:26;1348.30;;;351.73;;
73219;SDS011;61434;43.538;-5.688;2023-03-14T13:31:00;1544.05;;;392.80;;
73219;SDS011;61434;43.538;-5.688;2023-03-14T13:33:28;1999.90;;;680.65;;
73219;SDS011;61434;43.538;-5.688;2023-03-14T13:38:31;1999.90;;;516.58;;
73219;SDS011;61434;43.538;-5.688;2023-03-14T13:40:58;1999.90;;;624.63;;
73219;SDS011;61434;43.538;-5.688;2023-03-14T13:43:33;1999.90;;;633.55;;
73219;SDS011;61434;43.538;-5.688;2023-03-14T13:46:21;1999.90;;;703.97;;
73219;SDS011;61434;43.538;-5.688;2023-03-14T13:48:54;1796.97;;;517.30;;
73219;SDS011;61434;43.538;-5.688;2023-03-14T13:51:22;1500.05;;;385.85;;
73219;SDS011;61434;43.538;-5.688;2023-03-14T13:53:50;1920.87;;;489.00;;
73219;SDS011;61434;43.538;-5.688;2023-03-14T13:56:18;1850.53;;;493.67;;
73219;SDS011;61434;43.538;-5.688;2023-03-14T13:58:44;1624.80;;;416.23;;
73219;SDS011;61434;43.538;-5.688;2023-03-14T14:01:17;1597.57;;;404.53;;
73219;SDS011;61434;43.538;-5.688;2023-03-14T14:03:46;1872.30;;;464.10;;
73219;SDS011;61434;43.538;-5.688;2023-03-14T14:06:34;1724.65;;;430.20;;
73219;SDS011;61434;43.538;-5.688;2023-03-14T14:09:03;1629.00;;;408.70;;
73219;SDS011;61434;43.538;-5.688;2023-03-14T14:11:42;1549.20;;;391.60;;
73219;SDS011;61434;43.538;-5.688;2023-03-14T14:14:35;1506.63;;;379.48;;
73219;SDS011;61434;43.538;-5.688;2023-03-14T14:17:06;1455.53;;;372.30;;
73219;SDS011;61434;43.538;-5.688;2023-03-14T14:19:35;1518.88;;;386.88;;
73219;SDS011;61434;43.538;-5.688;2023-03-14T14:22:02;1499.95;;;381.55;;
73219;SDS011;61434;43.538;-5.688;2023-03-14T14:24:30;1617.18;;;411.45;;
73219;SDS011;61434;43.538;-5.688;2023-03-14T14:29:33;1544.20;;;387.13;;
73219;SDS011;61434;43.538;-5.688;2023-03-14T14:32:00;1559.35;;;396.00;;
73219;SDS011;61434;43.538;-5.688;2023-03-14T14:35:09;1526.72;;;385.55;;
73219;SDS011;61434;43.538;-5.688;2023-03-14T14:37:32;1512.20;;;382.48;;
73219;SDS011;61434;43.538;-5.688;2023-03-14T14:40:07;1498.38;;;378.40;;
73219;SDS011;61434;43.538;-5.688;2023-03-14T14:42:40;1482.37;;;375.37;;
73219;SDS011;61434;43.538;-5.688;2023-03-14T14:45:07;1472.70;;;373.67;;
73219;SDS011;61434;43.538;-5.688;2023-03-14T14:47:47;1494.57;;;381.17;;
73219;SDS011;61434;43.538;-5.688;2023-03-14T14:53:00;1498.95;;;383.08;;
73219;SDS011;61434;43.538;-5.688;2023-03-14T14:55:44;1510.23;;;383.37;;
73219;SDS011;61434;43.538;-5.688;2023-03-14T14:58:29;1477.97;;;375.30;;
73219;SDS011;61434;43.538;-5.688;2023-03-14T15:01:24;1437.78;;;371.10;;
73219;SDS011;61434;43.538;-5.688;2023-03-14T15:03:55;1494.20;;;384.07;;
73219;SDS011;61434;43.538;-5.688;2023-03-14T15:06:21;1467.07;;;377.17;;
73219;SDS011;61434;43.538;-5.688;2023-03-14T15:08:49;1470.57;;;379.05;;
73219;SDS011;61434;43.538;-5.688;2023-03-14T15:11:18;1469.57;;;377.70;;
73219;SDS011;61434;43.538;-5.688;2023-03-14T15:13:47;1455.43;;;372.65;;
73219;SDS011;61434;43.538;-5.688;2023-03-14T15:16:13;1438.90;;;371.87;;
73219;SDS011;61434;43.538;-5.688;2023-03-14T15:18:41;1458.78;;;373.13;;
73219;SDS011;61434;43.538;-5.688;2023-03-14T15:21:09;1462.90;;;374.17;;
73219;SDS011;61434;43.538;-5.688;2023-03-14T15:23:35;1520.97;;;388.83;;
73219;SDS011;61434;43.538;-5.688;2023-03-14T15:26:01;1550.47;;;398.47;;
73219;SDS011;61434;43.538;-5.688;2023-03-14T15:28:28;1529.90;;;390.23;;
73219;SDS011;61434;43.538;-5.688;2023-03-14T15:30:57;1524.43;;;388.02;;
73219;SDS011;61434;43.538;-5.688;2023-03-14T15:33:24;1516.68;;;386.80;;
73219;SDS011;61434;43.538;-5.688;2023-03-14T15:35:51;1524.40;;;388.70;;
73219;SDS011;61434;43.538;-5.688;2023-03-14T15:38:18;1511.93;;;384.83;;
73219;SDS011;61434;43.538;-5.688;2023-03-14T15:40:47;1525.00;;;388.30;;
73219;SDS011;61434;43.538;-5.688;2023-03-14T15:43:14;1526.53;;;387.25;;
73219;SDS011;61434;43.538;-5.688;2023-03-14T15:45:40;1531.47;;;385.83;;
73219;SDS011;61434;43.538;-5.688;2023-03-14T15:48:12;1563.05;;;394.40;;
73219;SDS011;61434;43.538;-5.688;2023-03-14T15:50:41;1549.05;;;391.83;;
73219;SDS011;61434;43.538;-5.688;2023-03-14T15:53:07;1547.88;;;390.05;;
73219;SDS011;61434;43.538;-5.688;2023-03-14T15:55:32;1542.27;;;389.13;;
73219;SDS011;61434;43.538;-5.688;2023-03-14T15:57:58;1517.30;;;383.43;;
73219;SDS011;61434;43.538;-5.688;2023-03-14T16:00:24;1580.32;;;401.90;;
73219;SDS011;61434;43.538;-5.688;2023-03-14T16:02:50;1606.65;;;405.85;;
73219;SDS011;61434;43.538;-5.688;2023-03-14T16:05:15;1924.20;;;510.93;;
73219;SDS011;61434;43.538;-5.688;2023-03-14T16:07:43;1999.90;;;747.47;;
73219;SDS011;61434;43.538;-5.688;2023-03-14T16:10:10;1999.90;;;904.20;;
73219;SDS011;61434;43.538;-5.688;2023-03-14T16:12:36;1999.90;;;813.43;;
73219;SDS011;61434;43.538;-5.688;2023-03-14T16:15:02;1925.25;;;504.10;;
73219;SDS011;61434;43.538;-5.688;2023-03-14T16:17:28;1999.90;;;534.28;;
73219;SDS011;61434;43.538;-5.688;2023-03-14T16:19:53;1774.87;;;446.80;;
73219;SDS011;61434;43.538;-5.688;2023-03-14T16:22:19;1999.90;;;488.73;;
73219;SDS011;61434;43.538;-5.688;2023-03-14T16:24:44;1942.17;;;518.03;;
73219;SDS011;61434;43.538;-5.688;2023-03-14T16:27:10;1632.38;;;415.13;;
73219;SDS011;61434;43.538;-5.688;2023-03-14T16:32:23;1476.97;;;377.40;;
73219;SDS011;61434;43.538;-5.688;2023-03-14T16:34:48;1526.80;;;389.87;;
73219;SDS011;61434;43.538;-5.688;2023-03-14T16:37:14;1960.20;;;555.25;;
73219;SDS011;61434;43.538;-5.688;2023-03-14T16:39:39;965.57;;;228.33;;
73219;SDS011;61434;43.538;-5.688;2023-03-14T16:42:04;537.90;;;156.50;;
73219;SDS011;61434;43.538;-5.688;2023-03-14T16:44:30;575.97;;;125.70;;
73219;SDS011;61434;43.538;-5.688;2023-03-14T16:46:56;568.60;;;124.65;;
73219;SDS011;61434;43.538;-5.688;2023-03-14T16:49:21;507.90;;;117.20;;
73219;SDS011;61434;43.538;-5.688;2023-03-14T16:51:47;533.50;;;150.30;;
73219;SDS011;61434;43.538;-5.688;2023-03-14T16:54:12;555.70;;;132.13;;
73219;SDS011;61434;43.538;-5.688;2023-03-14T16:56:38;431.80;;;125.10;;
73219;SDS011;61434;43.538;-5.688;2023-03-14T16:59:03;517.90;;;114.60;;
73219;SDS011;61434;43.538;-5.688;2023-03-14T17:01:28;501.05;;;151.40;;
73219;SDS011;61434;43.538;-5.688;2023-03-14T17:03:54;505.55;;;160.43;;
73219;SDS011;61434;43.538;-5.688;2023-03-14T17:06:21;520.30;;;158.90;;
73219;SDS011;61434;43.538;-5.688;2023-03-14T17:08:49;420.30;;;129.60;;
73219;SDS011;61434;43.538;-5.688;2023-03-14T17:11:16;368.80;;;84.30;;
73219;SDS011;61434;43.538;-5.688;2023-03-14T17:13:41;342.20;;;54.20;;
73219;SDS011;61434;43.538;-5.688;2023-03-14T17:18:39;356.40;;;83.30;;
73219;SDS011;61434;43.538;-5.688;2023-03-14T17:21:05;328.90;;;45.70;;
73219;SDS011;61434;43.538;-5.688;2023-03-14T17:23:32;440.17;;;121.60;;
73219;SDS011;61434;43.538;-5.688;2023-03-14T17:25:58;491.60;;;185.40;;
73219;SDS011;61434;43.538;-5.688;2023-03-14T17:28:24;448.00;;;157.30;;
73219;SDS011;61434;43.538;-5.688;2023-03-14T17:31:00;370.35;;;74.35;;
73219;SDS011;61434;43.538;-5.688;2023-03-14T17:33:29;336.80;;;46.80;;
73219;SDS011;61434;43.538;-5.688;2023-03-14T17:35:55;436.07;;;114.07;;
73219;SDS011;61434;43.538;-5.688;2023-03-14T17:38:20;518.35;;;156.20;;
73219;SDS011;61434;43.538;-5.688;2023-03-14T17:40:46;516.15;;;153.80;;
73219;SDS011;61434;43.538;-5.688;2023-03-14T17:43:15;315.50;;;41.80;;
73219;SDS011;61434;43.538;-5.688;2023-03-14T17:45:41;302.50;;;39.80;;
73219;SDS011;61434;43.538;-5.688;2023-03-14T17:48:10;1942.33;;;625.07;;
73219;SDS011;61434;43.538;-5.688;2023-03-14T18:10:30;261.20;;;33.90;;
73219;SDS011;61434;43.538;-5.688;2023-03-14T19:04:35;1429.77;;;465.30;;
73219;SDS011;61434;43.538;-5.688;2023-03-14T19:07:33;563.45;;;121.55;;
73219;SDS011;61434;43.538;-5.688;2023-03-14T19:09:59;552.53;;;118.90;;
73219;SDS011;61434;43.538;-5.688;2023-03-14T19:12:26;522.70;;;135.03;;
73219;SDS011;61434;43.538;-5.688;2023-03-14T19:14:52;473.30;;;164.70;;
73219;SDS011;61434;43.538;-5.688;2023-03-14T19:17:18;511.30;;;149.00;;
73219;SDS011;61434;43.538;-5.688;2023-03-14T19:19:43;471.53;;;124.50;;
73219;SDS011;61434;43.538;-5.688;2023-03-14T19:22:09;492.65;;;194.70;;
73219;SDS011;61434;43.538;-5.688;2023-03-14T19:27:59;1241.35;;;370.40;;
73219;SDS011;61434;43.538;-5.688;2023-03-14T19:30:25;1851.22;;;526.53;;
73219;SDS011;61434;43.538;-5.688;2023-03-14T19:32:51;1632.53;;;427.65;;
73219;SDS011;61434;43.538;-5.688;2023-03-14T19:35:17;1640.93;;;428.67;;
73219;SDS011;61434;43.538;-5.688;2023-03-14T19:37:48;1999.90;;;678.90;;
73219;SDS011;61434;43.538;-5.688;2023-03-14T19:43:18;1999.90;;;643.50;;
73219;SDS011;61434;43.538;-5.688;2023-03-14T19:45:43;1999.90;;;631.00;;
73219;SDS011;61434;43.538;-5.688;2023-03-14T20:46:37;630.80;;;179.40;;
73219;SDS011;61434;43.538;-5.688;2023-03-14T21:45:57;1979.72;;;492.88;;
73219;SDS011;61434;43.538;-5.688;2023-03-14T21:48:23;1851.03;;;524.57;;
73219;SDS011;61434;43.538;-5.688;2023-03-14T21:50:48;1412.22;;;407.60;;
73219;SDS011;61434;43.538;-5.688;2023-03-14T21:53:14;1829.87;;;526.60;;
73219;SDS011;61434;43.538;-5.688;2023-03-14T21:55:43;521.80;;;144.30;;
73219;SDS011;61434;43.538;-5.688;2023-03-14T21:58:09;493.50;;;120.87;;
73219;SDS011;61434;43.538;-5.688;2023-03-14T22:00:40;527.90;;;121.60;;
73219;SDS011;61434;43.538;-5.688;2023-03-14T22:03:14;1208.63;;;336.35;;
73219;SDS011;61434;43.538;-5.688;2023-03-14T22:05:41;1708.57;;;450.98;;
73219;SDS011;61434;43.538;-5.688;2023-03-14T22:08:08;1549.00;;;414.27;;
73219;SDS011;61434;43.538;-5.688;2023-03-14T22:10:33;1782.87;;;525.97;;
73219;SDS011;61434;43.538;-5.688;2023-03-14T22:12:59;1283.87;;;355.97;;
73219;SDS011;61434;43.538;-5.688;2023-03-14T22:15:24;678.20;;;191.87;;
73219;SDS011;61434;43.538;-5.688;2023-03-14T22:17:50;781.00;;;225.25;;
73219;SDS011;61434;43.538;-5.688;2023-03-14T22:20:15;775.87;;;224.10;;
73219;SDS011;61434;43.538;-5.688;2023-03-14T22:22:40;707.53;;;204.80;;
73219;SDS011;61434;43.538;-5.688;2023-03-14T22:25:06;788.57;;;227.90;;
73219;SDS011;61434;43.538;-5.688;2023-03-14T22:27:32;725.15;;;209.38;;
73219;SDS011;61434;43.538;-5.688;2023-03-14T22:29:58;719.80;;;204.70;;
73219;SDS011;61434;43.538;-5.688;2023-03-14T22:32:23;711.47;;;201.80;;
73219;SDS011;61434;43.538;-5.688;2023-03-14T22:34:48;666.57;;;190.43;;
73219;SDS011;61434;43.538;-5.688;2023-03-14T22:37:14;704.27;;;202.73;;
73219;SDS011;61434;43.538;-5.688;2023-03-14T22:39:39;679.73;;;191.90;;
73219;SDS011;61434;43.538;-5.688;2023-03-14T22:42:05;669.88;;;190.40;;
73219;SDS011;61434;43.538;-5.688;2023-03-14T22:44:30;680.07;;;195.17;;
73219;SDS011;61434;43.538;-5.688;2023-03-14T22:46:57;639.00;;;181.15;;
73219;SDS011;61434;43.538;-5.688;2023-03-14T22:49:23;639.90;;;183.73;;
73219;SDS011;61434;43.538;-5.688;2023-03-14T22:51:49;642.57;;;183.80;;
73219;SDS011;61434;43.538;-5.688;2023-03-14T22:54:14;645.70;;;182.53;;
73219;SDS011;61434;43.538;-5.688;2023-03-14T22:56:40;655.17;;;184.80;;
73219;SDS011;61434;43.538;-5.688;2023-03-14T22:59:05;632.40;;;178.43;;
73219;SDS011;61434;43.538;-5.688;2023-03-14T23:01:31;630.20;;;177.70;;
73219;SDS011;61434;43.538;-5.688;2023-03-14T23:03:56;622.50;;;175.00;;
73219;SDS011;61434;43.538;-5.688;2023-03-14T23:06:21;635.00;;;179.70;;
73219;SDS011;61434;43.538;-5.688;2023-03-14T23:08:47;601.67;;;168.50;;
73219;SDS011;61434;43.538;-5.688;2023-03-14T23:11:12;599.50;;;166.30;;
73219;SDS011;61434;43.538;-5.688;2023-03-14T23:13:38;603.37;;;169.97;;
73219;SDS011;61434;43.538;-5.688;2023-03-14T23:16:06;605.35;;;169.95;;
73219;SDS011;61434;43.538;-5.688;2023-03-14T23:18:32;583.70;;;163.77;;
73219;SDS011;61434;43.538;-5.688;2023-03-14T23:23:37;575.03;;;161.65;;
73219;SDS011;61434;43.538;-5.688;2023-03-14T23:26:05;602.17;;;172.90;;
73219;SDS011;61434;43.538;-5.688;2023-03-14T23:28:32;602.58;;;171.45;;
73219;SDS011;61434;43.538;-5.688;2023-03-14T23:30:58;660.58;;;191.93;;
73219;SDS011;61434;43.538;-5.688;2023-03-14T23:33:24;575.00;;;161.10;;
73219;SDS011;61434;43.538;-5.688;2023-03-14T23:35:51;580.53;;;163.82;;
73219;SDS011;61434;43.538;-5.688;2023-03-14T23:38:18;586.30;;;166.00;;
73219;SDS011;61434;43.538;-5.688;2023-03-14T23:40:45;572.78;;;162.35;;
73219;SDS011;61434;43.538;-5.688;2023-03-14T23:43:10;557.47;;;156.97;;
73219;SDS011;61434;43.538;-5.688;2023-03-14T23:45:36;522.40;;;148.20;;
73219;SDS011;61434;43.538;-5.688;2023-03-14T23:48:01;515.23;;;146.87;;
73219;SDS011;61434;43.538;-5.688;2023-03-14T23:50:27;535.88;;;152.57;;
73219;SDS011;61434;43.538;-5.688;2023-03-14T23:52:53;515.03;;;148.37;;
73219;SDS011;61434;43.538;-5.688;2023-03-14T23:55:18;509.07;;;146.17;;
73219;SDS011;61434;43.538;-5.688;2023-03-14T23:57:43;516.27;;;146.67;;
